createdAt,value
2019-01-23T00:00:54.003Z,35.60
2019-01-23T00:03:42.300Z,34.87
2019-01-23T00:06:30.443Z,34.07
2019-01-23T00:09:18.327Z,34.13
2019-01-23T00:12:06.935Z,32.57
2019-01-23T00:14:55.218Z,31.00
2019-01-23T00:17:43.440Z,37.10
2019-01-23T00:20:31.731Z,34.53
2019-01-23T00:23:20.434Z,34.27
2019-01-23T00:26:08.820Z,33.63
2019-01-23T00:28:56.872Z,35.43
2019-01-23T00:31:44.949Z,35.80
2019-01-23T00:34:33.869Z,35.63
2019-01-23T00:37:22.116Z,35.03
2019-01-23T00:40:10.424Z,35.30
2019-01-23T00:42:58.477Z,35.70
2019-01-23T00:45:47.042Z,34.07
2019-01-23T00:48:35.482Z,34.13
2019-01-23T00:51:24.370Z,34.47
2019-01-23T00:54:13.093Z,34.60
2019-01-23T00:57:00.816Z,35.87
2019-01-23T00:59:48.959Z,34.80
2019-01-23T01:02:36.798Z,35.97
2019-01-23T01:05:25.168Z,36.60
2019-01-23T01:08:13.562Z,35.83
2019-01-23T01:11:02.000Z,37.70
2019-01-23T01:13:50.604Z,36.97
2019-01-23T01:16:39.199Z,36.97
2019-01-23T01:19:27.759Z,36.63
2019-01-23T01:22:16.642Z,36.60
2019-01-23T01:25:06.599Z,37.73
2019-01-23T01:27:54.466Z,37.90
2019-01-23T01:30:42.527Z,36.90
2019-01-23T01:33:34.032Z,37.67
2019-01-23T01:36:20.768Z,36.07
2019-01-23T01:39:09.188Z,36.30
2019-01-23T01:41:57.115Z,34.70
2019-01-23T01:44:45.828Z,38.67
2019-01-23T01:47:34.123Z,39.53
2019-01-23T01:50:22.901Z,38.37
2019-01-23T01:53:11.098Z,41.60
2019-01-23T01:55:59.198Z,38.10
2019-01-23T01:58:47.931Z,37.07
2019-01-23T02:01:36.316Z,40.67
2019-01-23T02:04:24.317Z,42.00
2019-01-23T02:07:12.699Z,39.67
2019-01-23T02:10:01.468Z,36.23
2019-01-23T02:12:49.975Z,37.67
2019-01-23T02:15:38.122Z,36.03
2019-01-23T02:18:26.975Z,39.43
2019-01-23T02:21:15.885Z,39.30
2019-01-23T02:24:04.255Z,39.80
2019-01-23T02:26:52.251Z,38.30
2019-01-23T02:29:41.167Z,38.50
2019-01-23T02:32:29.831Z,38.13
2019-01-23T02:35:18.578Z,36.53
2019-01-23T02:38:06.867Z,36.90
2019-01-23T02:40:55.381Z,38.00
2019-01-23T02:43:43.344Z,36.07
2019-01-23T02:46:31.353Z,35.80
2019-01-23T02:49:18.845Z,37.00
2019-01-23T02:52:07.010Z,35.27
2019-01-23T02:54:56.128Z,36.80
2019-01-23T02:57:44.328Z,36.47
2019-01-23T03:00:31.951Z,34.10
2019-01-23T03:03:20.524Z,34.23
2019-01-23T03:06:08.775Z,33.27
2019-01-23T03:08:57.593Z,33.67
2019-01-23T03:11:46.095Z,33.20
2019-01-23T03:14:34.479Z,30.90
2019-01-23T03:17:22.816Z,31.10
2019-01-23T03:20:13.372Z,30.50
2019-01-23T03:23:01.761Z,31.03
2019-01-23T03:25:50.409Z,32.83
2019-01-23T03:28:39.139Z,31.50
2019-01-23T03:31:27.276Z,33.40
2019-01-23T03:34:15.496Z,32.63
2019-01-23T03:37:04.809Z,30.00
2019-01-23T03:39:53.316Z,31.40
2019-01-23T03:42:41.336Z,31.37
2019-01-23T03:45:29.375Z,33.67
2019-01-23T03:48:17.664Z,33.77
2019-01-23T03:51:05.536Z,34.83
2019-01-23T03:53:53.547Z,34.50
2019-01-23T03:56:41.505Z,32.87
2019-01-23T03:59:32.238Z,35.13
2019-01-23T04:02:19.361Z,33.50
2019-01-23T04:05:08.813Z,34.90
2019-01-23T04:07:56.764Z,35.70
2019-01-23T04:10:44.363Z,36.60
2019-01-23T04:13:32.994Z,34.20
2019-01-23T04:16:20.610Z,34.00
2019-01-23T04:19:09.317Z,36.07
2019-01-23T04:21:57.302Z,37.07
2019-01-23T04:24:46.163Z,39.40
2019-01-23T04:27:33.871Z,34.77
2019-01-23T04:30:23.746Z,34.70
2019-01-23T04:33:11.540Z,39.03
2019-01-23T04:35:59.512Z,35.70
2019-01-23T04:38:48.033Z,35.63
2019-01-23T04:41:36.160Z,36.80
2019-01-23T04:44:24.414Z,35.90
2019-01-23T04:47:12.696Z,37.43
2019-01-23T04:50:01.005Z,38.57
2019-01-23T04:53:00.951Z,35.10
2019-01-23T04:55:49.501Z,36.67
2019-01-23T04:58:38.051Z,35.53
2019-01-23T05:01:26.466Z,36.57
2019-01-23T05:04:14.666Z,35.27
2019-01-23T05:07:03.091Z,37.80
2019-01-23T05:09:51.649Z,36.80
2019-01-23T05:12:39.344Z,38.63
2019-01-23T05:15:27.551Z,36.10
2019-01-23T05:18:15.812Z,36.17
2019-01-23T05:21:04.455Z,39.17
2019-01-23T05:23:52.263Z,36.97
2019-01-23T05:26:40.422Z,38.20
2019-01-23T05:29:28.719Z,34.50
2019-01-23T05:32:16.318Z,36.47
2019-01-23T05:35:05.827Z,37.63
2019-01-23T05:37:53.671Z,36.07
2019-01-23T05:40:41.876Z,39.10
2019-01-23T05:43:29.837Z,38.60
2019-01-23T05:46:18.151Z,37.13
2019-01-23T05:49:06.662Z,38.67
2019-01-23T05:51:54.960Z,36.50
2019-01-23T05:54:42.989Z,40.00
2019-01-23T05:57:31.484Z,38.53
2019-01-23T06:00:21.440Z,38.70
2019-01-23T06:03:09.758Z,38.83
2019-01-23T06:05:57.470Z,39.47
2019-01-23T06:08:45.871Z,38.37
2019-01-23T06:11:34.127Z,41.40
2019-01-23T06:14:22.464Z,40.70
2019-01-23T06:17:10.946Z,38.77
2019-01-23T06:19:59.387Z,39.87
2019-01-23T06:22:47.802Z,39.07
2019-01-23T06:25:35.647Z,39.83
2019-01-23T06:28:23.586Z,41.03
2019-01-23T06:31:11.684Z,38.60
2019-01-23T06:33:59.558Z,39.10
2019-01-23T06:36:48.062Z,39.27
2019-01-23T06:39:36.403Z,38.73
2019-01-23T06:42:24.183Z,37.60
2019-01-23T06:45:13.694Z,39.70
2019-01-23T06:48:01.787Z,38.50
2019-01-23T06:50:50.056Z,38.50
2019-01-23T06:53:38.110Z,39.53
2019-01-23T06:56:26.308Z,40.03
2019-01-23T06:59:15.603Z,38.80
2019-01-23T07:02:03.750Z,40.70
2019-01-23T07:04:52.539Z,37.47
2019-01-23T07:07:40.322Z,39.20
2019-01-23T07:10:28.568Z,39.40
2019-01-23T07:13:16.772Z,37.53
2019-01-23T07:16:05.181Z,37.50
2019-01-23T07:18:53.639Z,37.07
2019-01-23T07:21:41.875Z,36.77
2019-01-23T07:24:30.118Z,35.57
2019-01-23T07:27:17.974Z,36.83
2019-01-23T07:30:10.582Z,37.90
2019-01-23T07:32:58.618Z,37.10
2019-01-23T07:35:46.891Z,38.10
2019-01-23T07:38:35.075Z,36.60
2019-01-23T07:41:23.158Z,35.87
2019-01-23T07:44:11.543Z,34.33
2019-01-23T07:46:59.754Z,34.10
2019-01-23T07:49:47.766Z,34.80
2019-01-23T07:52:35.951Z,34.23
2019-01-23T07:55:23.828Z,32.83
2019-01-23T07:58:12.292Z,32.90
2019-01-23T08:01:00.479Z,31.60
2019-01-23T08:03:48.602Z,32.67
2019-01-23T08:06:36.767Z,33.07
2019-01-23T08:09:25.487Z,32.40
2019-01-23T08:12:20.750Z,31.10
2019-01-23T08:15:14.273Z,33.87
2019-01-23T08:18:08.156Z,32.00
2019-01-23T08:20:57.203Z,32.30
2019-01-23T08:23:45.240Z,31.13
2019-01-23T08:26:33.659Z,30.40
2019-01-23T08:29:22.154Z,29.80
2019-01-23T08:32:10.094Z,30.43
2019-01-23T08:34:58.222Z,32.23
2019-01-23T08:37:46.447Z,30.73
2019-01-23T08:40:35.000Z,30.47
2019-01-23T08:43:23.335Z,30.40
2019-01-23T08:46:11.822Z,32.50
2019-01-23T08:48:59.958Z,30.70
2019-01-23T08:51:47.431Z,32.97
2019-01-23T08:54:35.994Z,29.20
2019-01-23T08:57:24.347Z,30.47
2019-01-23T09:00:13.179Z,33.00
2019-01-23T09:03:01.102Z,30.27
2019-01-23T09:05:49.473Z,31.43
2019-01-23T09:08:37.847Z,31.13
2019-01-23T09:11:26.286Z,30.87
2019-01-23T09:14:14.351Z,28.70
2019-01-23T09:17:02.678Z,30.37
2019-01-23T09:19:51.534Z,30.17
2019-01-23T09:22:40.319Z,29.17
2019-01-23T09:25:28.357Z,29.00
2019-01-23T09:28:16.236Z,28.20
2019-01-23T09:31:24.402Z,29.83
2019-01-23T09:34:44.967Z,28.70
2019-01-23T09:37:45.179Z,29.70
2019-01-23T09:40:57.167Z,31.00
2019-01-23T09:44:29.083Z,29.93
2019-01-23T09:47:44.571Z,29.10
2019-01-23T09:50:50.915Z,30.80
2019-01-23T09:53:46.851Z,30.90
2019-01-23T09:56:34.910Z,31.23
2019-01-23T09:59:23.124Z,29.23
2019-01-23T10:02:11.035Z,29.20
2019-01-23T10:04:59.199Z,30.03
2019-01-23T10:07:47.179Z,29.77
2019-01-23T10:10:35.502Z,30.67
2019-01-23T10:13:22.962Z,27.93
2019-01-23T10:16:16.391Z,28.70
2019-01-23T10:19:04.838Z,27.67
2019-01-23T10:21:52.934Z,27.63
2019-01-23T10:24:40.971Z,29.00
2019-01-23T10:27:29.295Z,27.17
2019-01-23T10:30:17.650Z,28.77
2019-01-23T10:33:05.650Z,30.53
2019-01-23T10:35:53.647Z,31.10
2019-01-23T10:38:41.447Z,29.10
2019-01-23T10:41:29.667Z,29.40
2019-01-23T10:44:17.550Z,30.37
2019-01-23T10:47:05.658Z,32.03
2019-01-23T10:49:53.399Z,30.37
2019-01-23T10:52:41.946Z,29.83
2019-01-23T10:55:30.439Z,28.87
2019-01-23T10:58:19.368Z,31.10
2019-01-23T11:01:13.236Z,30.20
2019-01-23T11:03:56.974Z,28.40
2019-01-23T11:06:44.628Z,31.33
2019-01-23T11:09:32.083Z,29.90
2019-01-23T11:12:20.127Z,29.60
2019-01-23T11:15:08.422Z,29.27
2019-01-23T11:17:56.458Z,27.77
2019-01-23T11:20:44.658Z,28.97
2019-01-23T11:23:32.587Z,30.30
2019-01-23T11:26:20.867Z,27.83
2019-01-23T11:29:11.354Z,34.30
2019-01-23T11:31:59.315Z,30.70
2019-01-23T11:34:47.520Z,29.07
2019-01-23T11:37:35.680Z,27.60
2019-01-23T11:40:28.738Z,29.57
2019-01-23T11:43:17.151Z,30.30
2019-01-23T11:46:04.865Z,31.73
2019-01-23T11:48:53.527Z,29.93
2019-01-23T11:51:41.359Z,30.43
2019-01-23T11:54:29.830Z,30.57
2019-01-23T11:57:18.111Z,29.60
2019-01-23T12:00:08.768Z,32.60
2019-01-23T12:02:56.890Z,32.47
2019-01-23T12:05:45.487Z,29.40
2019-01-23T12:08:33.875Z,31.03
2019-01-23T12:11:21.798Z,29.93
2019-01-23T12:14:10.264Z,33.17
2019-01-23T12:16:58.491Z,31.23
2019-01-23T12:19:46.785Z,32.83
2019-01-23T12:22:35.283Z,32.07
2019-01-23T12:25:23.241Z,31.30
2019-01-23T12:28:11.619Z,32.73
2019-01-23T12:30:59.915Z,32.00
2019-01-23T12:33:47.658Z,32.43
2019-01-23T12:36:35.537Z,31.80
2019-01-23T12:39:23.701Z,33.93
2019-01-23T12:42:11.705Z,33.13
2019-01-23T12:44:59.616Z,32.80
2019-01-23T12:47:47.222Z,31.60
2019-01-23T12:50:35.375Z,31.67
2019-01-23T12:53:22.911Z,31.87
2019-01-23T12:56:11.210Z,31.70
2019-01-23T12:58:59.435Z,31.43
2019-01-23T13:01:48.106Z,29.30
2019-01-23T13:04:35.920Z,29.57
2019-01-23T13:07:23.895Z,30.13
2019-01-23T13:10:15.183Z,32.10
2019-01-23T13:13:03.301Z,31.50
2019-01-23T13:15:51.843Z,30.67
2019-01-23T13:18:39.875Z,31.93
2019-01-23T13:21:28.143Z,31.93
2019-01-23T13:24:16.170Z,32.63
2019-01-23T13:27:04.610Z,30.63
2019-01-23T13:29:52.103Z,32.10
2019-01-23T13:32:40.625Z,31.87
2019-01-23T13:35:34.897Z,28.90
2019-01-23T13:38:23.140Z,30.57
2019-01-23T13:41:11.994Z,29.60
2019-01-23T13:44:00.374Z,28.97
2019-01-23T13:46:47.879Z,27.87
2019-01-23T13:49:35.902Z,27.70
2019-01-23T13:52:24.207Z,29.37
2019-01-23T13:55:13.432Z,27.73
2019-01-23T13:58:01.455Z,29.10
2019-01-23T14:00:49.241Z,29.60
2019-01-23T14:03:37.230Z,31.23
2019-01-23T14:06:25.190Z,29.37
2019-01-23T14:09:13.161Z,30.00
2019-01-23T14:12:01.114Z,30.43
2019-01-23T14:14:49.420Z,26.73
2019-01-23T14:17:37.319Z,29.63
2019-01-23T14:20:25.386Z,29.67
2019-01-23T14:23:13.274Z,30.90
2019-01-23T14:26:01.840Z,29.07
2019-01-23T14:28:50.086Z,28.67
2019-01-23T14:31:38.326Z,30.57
2019-01-23T14:34:26.518Z,32.60
2019-01-23T14:37:14.947Z,29.70
2019-01-23T14:40:03.170Z,32.00
2019-01-23T14:42:51.671Z,31.70
2019-01-23T14:45:40.115Z,30.30
2019-01-23T14:48:27.879Z,32.27
2019-01-23T14:51:16.075Z,28.57
2019-01-23T14:54:04.531Z,30.67
2019-01-23T14:56:52.119Z,31.10
2019-01-23T14:59:40.083Z,29.63
2019-01-23T15:02:28.727Z,31.77
2019-01-23T15:05:17.430Z,30.10
2019-01-23T15:08:05.270Z,30.00
2019-01-23T15:10:53.165Z,32.30
2019-01-23T15:13:41.556Z,31.70
2019-01-23T15:16:29.782Z,32.07
2019-01-23T15:19:18.038Z,32.37
2019-01-23T15:22:06.880Z,31.73
2019-01-23T15:24:55.190Z,32.67
2019-01-23T15:27:43.549Z,30.03
2019-01-23T15:30:32.291Z,31.10
2019-01-23T15:33:20.085Z,30.60
2019-01-23T15:36:08.258Z,31.67
2019-01-23T15:38:55.925Z,30.07
2019-01-23T15:41:43.850Z,32.23
2019-01-23T15:44:32.246Z,29.80
2019-01-23T15:47:20.558Z,30.90
2019-01-23T15:50:11.369Z,30.73
2019-01-23T15:52:59.783Z,33.23
2019-01-23T15:55:47.763Z,30.60
2019-01-23T15:58:35.515Z,31.33
2019-01-23T16:01:23.867Z,31.13
2019-01-23T16:04:11.975Z,32.90
2019-01-23T16:06:59.435Z,33.07
2019-01-23T16:09:47.627Z,33.50
2019-01-23T16:12:35.767Z,35.37
2019-01-23T16:15:25.024Z,32.43
2019-01-23T16:18:13.141Z,34.57
2019-01-23T16:21:01.432Z,32.60
2019-01-23T16:23:49.635Z,33.47
2019-01-23T16:26:37.438Z,29.67
2019-01-23T16:29:26.136Z,32.80
2019-01-23T16:32:14.891Z,33.60
2019-01-23T16:35:03.519Z,32.70
2019-01-23T16:37:51.848Z,31.80
2019-01-23T16:40:39.733Z,34.43
2019-01-23T16:43:27.986Z,34.10
2019-01-23T16:46:15.969Z,31.63
2019-01-23T16:49:04.244Z,31.27
2019-01-23T16:51:52.318Z,32.83
2019-01-23T16:54:40.506Z,33.17
2019-01-23T16:57:28.799Z,31.73
2019-01-23T17:00:19.211Z,32.17
2019-01-23T17:03:07.763Z,32.30
2019-01-23T17:05:55.710Z,33.03
2019-01-23T17:08:43.174Z,31.13
2019-01-23T17:11:31.135Z,33.17
2019-01-23T17:14:18.971Z,30.90
2019-01-23T17:17:07.047Z,32.50
2019-01-23T17:19:59.009Z,34.60
2019-01-23T17:22:44.623Z,33.57
2019-01-23T17:25:32.671Z,33.40
2019-01-23T17:28:21.078Z,31.77
2019-01-23T17:31:09.779Z,32.80
2019-01-23T17:33:58.198Z,30.57
2019-01-23T17:36:46.146Z,33.50
2019-01-23T17:39:34.632Z,32.77
2019-01-23T17:42:22.603Z,34.23
2019-01-23T17:45:13.899Z,33.70
2019-01-23T17:48:02.269Z,33.60
2019-01-23T17:50:52.258Z,32.27
2019-01-23T17:53:40.863Z,33.10
2019-01-23T17:56:29.224Z,31.80
2019-01-23T17:59:17.569Z,32.40
2019-01-23T18:02:05.912Z,33.00
2019-01-23T18:04:53.815Z,32.63
2019-01-23T18:07:43.814Z,32.00
2019-01-23T18:10:32.072Z,32.17
2019-01-23T18:13:20.231Z,32.17
2019-01-23T18:16:10.567Z,33.50
2019-01-23T18:18:58.373Z,33.53
2019-01-23T18:22:16.552Z,32.47
2019-01-23T18:25:06.616Z,29.47
2019-01-23T18:27:54.559Z,30.63
2019-01-23T18:31:11.083Z,31.10
2019-01-23T18:34:33.601Z,32.87
2019-01-23T18:37:33.012Z,30.53
2019-01-23T18:41:00.971Z,30.60
2019-01-23T18:44:21.104Z,30.27
2019-01-23T18:47:18.360Z,32.13
2019-01-23T18:50:38.775Z,31.17
2019-01-23T18:53:26.821Z,30.70
2019-01-23T18:56:15.029Z,33.10
2019-01-23T18:59:03.201Z,30.03
2019-01-23T19:02:03.398Z,34.50
2019-01-23T19:04:57.917Z,33.17
2019-01-23T19:07:54.816Z,35.30
2019-01-23T19:10:43.314Z,34.90
2019-01-23T19:13:43.328Z,31.20
2019-01-23T19:16:31.042Z,33.00
2019-01-23T19:19:19.746Z,33.23
2019-01-23T19:22:08.074Z,33.77
2019-01-23T19:24:56.344Z,31.23
2019-01-23T19:27:56.176Z,34.60
2019-01-23T19:30:44.743Z,33.50
2019-01-23T19:33:34.583Z,31.40
2019-01-23T19:36:22.880Z,33.60
2019-01-23T19:39:11.828Z,34.50
2019-01-23T19:42:00.736Z,33.33
2019-01-23T19:44:48.959Z,38.27
2019-01-23T19:47:36.740Z,34.83
2019-01-23T19:50:28.463Z,35.30
2019-01-23T19:53:16.557Z,35.00
2019-01-23T19:56:04.600Z,35.30
2019-01-23T19:58:53.423Z,37.43
2019-01-23T20:01:42.380Z,34.17
2019-01-23T20:04:31.343Z,34.10
2019-01-23T20:07:19.183Z,34.57
2019-01-23T20:10:14.327Z,34.40
2019-01-23T20:12:59.698Z,34.20
2019-01-23T20:15:47.619Z,33.63
2019-01-23T20:18:35.502Z,35.93
2019-01-23T20:21:23.662Z,34.97
2019-01-23T20:24:12.528Z,35.40
2019-01-23T20:27:00.566Z,35.10
2019-01-23T20:29:49.185Z,33.70
2019-01-23T20:32:37.438Z,36.47
2019-01-23T20:35:25.414Z,34.47
2019-01-23T20:38:13.583Z,36.30
2019-01-23T20:41:01.510Z,34.30
2019-01-23T20:43:49.571Z,37.63
2019-01-23T20:46:38.361Z,35.17
2019-01-23T20:49:26.926Z,37.50
2019-01-23T20:52:14.760Z,37.50
2019-01-23T20:55:03.508Z,37.33
2019-01-23T20:57:51.519Z,35.43
2019-01-23T21:00:40.516Z,37.57
2019-01-23T21:03:34.855Z,35.80
2019-01-23T21:06:18.431Z,35.63
2019-01-23T21:09:09.172Z,35.70
2019-01-23T21:11:57.927Z,33.93
2019-01-23T21:14:46.182Z,36.33
2019-01-23T21:17:34.638Z,34.63
2019-01-23T21:20:22.839Z,37.20
2019-01-23T21:23:13.103Z,36.43
2019-01-23T21:26:01.618Z,36.57
2019-01-23T21:28:49.591Z,37.40
2019-01-23T21:31:37.798Z,36.97
2019-01-23T21:34:26.083Z,36.60
2019-01-23T21:37:14.290Z,36.30
2019-01-23T21:40:02.690Z,37.90
2019-01-23T21:42:51.783Z,35.10
2019-01-23T21:45:39.775Z,39.80
2019-01-23T21:48:27.580Z,36.80
2019-01-23T21:51:15.507Z,37.40
2019-01-23T21:54:03.786Z,36.63
2019-01-23T21:56:51.918Z,39.07
2019-01-23T21:59:40.538Z,37.13
2019-01-23T22:02:28.582Z,37.13
2019-01-23T22:05:17.028Z,39.90
2019-01-23T22:08:05.118Z,38.27
2019-01-23T22:10:53.606Z,40.20
2019-01-23T22:13:41.394Z,39.70
2019-01-23T22:16:29.779Z,38.70
2019-01-23T22:19:18.279Z,38.10
2019-01-23T22:22:06.330Z,38.27
2019-01-23T22:24:54.995Z,39.53
2019-01-23T22:27:43.150Z,41.47
2019-01-23T22:30:32.039Z,40.80
2019-01-23T22:33:20.670Z,40.27
2019-01-23T22:36:08.914Z,39.33
2019-01-23T22:38:57.053Z,37.70
2019-01-23T22:41:45.250Z,38.20
2019-01-23T22:44:34.169Z,41.73
2019-01-23T22:47:22.658Z,37.63
2019-01-23T22:50:13.339Z,37.53
2019-01-23T22:53:01.967Z,36.87
2019-01-23T22:55:50.176Z,40.33
2019-01-23T22:58:38.348Z,39.10
2019-01-23T23:01:28.427Z,40.67
2019-01-23T23:04:16.667Z,37.90
2019-01-23T23:07:05.495Z,37.83
2019-01-23T23:09:53.714Z,37.73
2019-01-23T23:12:41.518Z,36.93
2019-01-23T23:15:29.911Z,40.80
2019-01-23T23:18:18.746Z,41.83
2019-01-23T23:21:07.023Z,40.20
2019-01-23T23:23:55.290Z,36.90
2019-01-23T23:26:43.884Z,36.30
2019-01-23T23:29:32.586Z,37.50
2019-01-23T23:32:20.778Z,38.20
2019-01-23T23:35:08.611Z,39.03
2019-01-23T23:37:56.811Z,41.00
2019-01-23T23:40:45.234Z,38.30
2019-01-23T23:43:33.359Z,40.53
2019-01-23T23:46:21.371Z,41.10
2019-01-23T23:49:09.396Z,39.57
2019-01-23T23:51:57.601Z,39.50
2019-01-23T23:54:46.030Z,40.27
2019-01-23T23:57:34.674Z,39.93
